sensor_id;sensor_type;location;lat;lon;timestamp;P1;durP1;ratioP1;P2;durP2;ratioP2
39890;SDS011;25564;53.312;9.790;2023-07-20T00:00:01;2.27;;;1.20;;
39890;SDS011;25564;53.312;9.790;2023-07-20T00:02:33;7.57;;;1.50;;
39890;SDS011;25564;53.312;9.790;2023-07-20T00:05:04;1.57;;;1.10;;
39890;SDS011;25564;53.312;9.790;2023-07-20T00:07:36;2.93;;;1.30;;
39890;SDS011;25564;53.312;9.790;2023-07-20T00:10:07;2.80;;;1.47;;
39890;SDS011;25564;53.312;9.790;2023-07-20T00:12:39;2.53;;;1.23;;
39890;SDS011;25564;53.312;9.790;2023-07-20T00:15:10;2.23;;;1.30;;
39890;SDS011;25564;53.312;9.790;2023-07-20T00:17:42;2.03;;;1.37;;
39890;SDS011;25564;53.312;9.790;2023-07-20T00:20:13;2.13;;;1.40;;
39890;SDS011;25564;53.312;9.790;2023-07-20T00:22:45;2.40;;;1.47;;
39890;SDS011;25564;53.312;9.790;2023-07-20T00:25:16;3.63;;;1.30;;
39890;SDS011;25564;53.312;9.790;2023-07-20T00:27:48;1.80;;;1.50;;
39890;SDS011;25564;53.312;9.790;2023-07-20T00:30:19;2.60;;;1.53;;
39890;SDS011;25564;53.312;9.790;2023-07-20T00:32:50;3.00;;;1.63;;
39890;SDS011;25564;53.312;9.790;2023-07-20T00:35:22;2.73;;;1.43;;
39890;SDS011;25564;53.312;9.790;2023-07-20T00:37:53;2.10;;;1.30;;
39890;SDS011;25564;53.312;9.790;2023-07-20T00:40:24;2.10;;;1.20;;
39890;SDS011;25564;53.312;9.790;2023-07-20T00:42:56;3.90;;;1.20;;
39890;SDS011;25564;53.312;9.790;2023-07-20T00:45:27;3.33;;;1.50;;
39890;SDS011;25564;53.312;9.790;2023-07-20T00:47:59;2.47;;;1.30;;
39890;SDS011;25564;53.312;9.790;2023-07-20T00:50:32;2.30;;;1.47;;
39890;SDS011;25564;53.312;9.790;2023-07-20T00:53:05;3.90;;;1.70;;
39890;SDS011;25564;53.312;9.790;2023-07-20T00:55:37;5.73;;;1.50;;
39890;SDS011;25564;53.312;9.790;2023-07-20T00:58:09;3.50;;;1.60;;
39890;SDS011;25564;53.312;9.790;2023-07-20T01:00:40;2.30;;;1.40;;
39890;SDS011;25564;53.312;9.790;2023-07-20T01:03:11;2.30;;;1.47;;
39890;SDS011;25564;53.312;9.790;2023-07-20T01:06:01;2.67;;;1.60;;
39890;SDS011;25564;53.312;9.790;2023-07-20T01:11:28;2.27;;;1.53;;
39890;SDS011;25564;53.312;9.790;2023-07-20T01:14:09;2.83;;;1.37;;
39890;SDS011;25564;53.312;9.790;2023-07-20T01:16:41;3.90;;;1.60;;
39890;SDS011;25564;53.312;9.790;2023-07-20T01:19:13;3.67;;;1.50;;
39890;SDS011;25564;53.312;9.790;2023-07-20T01:33:14;3.30;;;1.83;;
39890;SDS011;25564;53.312;9.790;2023-07-20T01:35:49;6.07;;;2.20;;
39890;SDS011;25564;53.312;9.790;2023-07-20T01:38:25;4.00;;;1.87;;
39890;SDS011;25564;53.312;9.790;2023-07-20T01:40:57;3.93;;;2.10;;
39890;SDS011;25564;53.312;9.790;2023-07-20T01:43:29;4.50;;;2.03;;
39890;SDS011;25564;53.312;9.790;2023-07-20T01:46:00;5.77;;;1.80;;
39890;SDS011;25564;53.312;9.790;2023-07-20T01:48:32;4.00;;;1.93;;
39890;SDS011;25564;53.312;9.790;2023-07-20T01:51:03;3.23;;;2.23;;
39890;SDS011;25564;53.312;9.790;2023-07-20T01:53:34;5.17;;;2.70;;
39890;SDS011;25564;53.312;9.790;2023-07-20T01:56:06;2.97;;;1.83;;
39890;SDS011;25564;53.312;9.790;2023-07-20T01:58:37;5.83;;;2.03;;
39890;SDS011;25564;53.312;9.790;2023-07-20T02:01:09;4.37;;;2.27;;
39890;SDS011;25564;53.312;9.790;2023-07-20T02:03:41;4.27;;;2.43;;
39890;SDS011;25564;53.312;9.790;2023-07-20T02:06:12;3.80;;;2.30;;
39890;SDS011;25564;53.312;9.790;2023-07-20T02:08:43;5.33;;;2.20;;
39890;SDS011;25564;53.312;9.790;2023-07-20T02:11:15;3.50;;;1.83;;
39890;SDS011;25564;53.312;9.790;2023-07-20T02:13:46;4.37;;;2.33;;
39890;SDS011;25564;53.312;9.790;2023-07-20T02:16:17;2.70;;;1.87;;
39890;SDS011;25564;53.312;9.790;2023-07-20T02:18:49;2.90;;;1.70;;
39890;SDS011;25564;53.312;9.790;2023-07-20T02:21:20;4.03;;;1.93;;
39890;SDS011;25564;53.312;9.790;2023-07-20T02:23:51;3.93;;;2.27;;
39890;SDS011;25564;53.312;9.790;2023-07-20T02:26:23;3.43;;;2.03;;
39890;SDS011;25564;53.312;9.790;2023-07-20T02:28:54;3.27;;;1.97;;
39890;SDS011;25564;53.312;9.790;2023-07-20T02:31:26;2.53;;;1.40;;
39890;SDS011;25564;53.312;9.790;2023-07-20T02:33:57;3.10;;;1.90;;
39890;SDS011;25564;53.312;9.790;2023-07-20T02:36:29;2.70;;;1.70;;
39890;SDS011;25564;53.312;9.790;2023-07-20T02:39:00;3.90;;;1.90;;
39890;SDS011;25564;53.312;9.790;2023-07-20T02:41:33;2.97;;;1.67;;
39890;SDS011;25564;53.312;9.790;2023-07-20T02:44:05;4.10;;;1.90;;
39890;SDS011;25564;53.312;9.790;2023-07-20T02:46:36;3.27;;;1.77;;
39890;SDS011;25564;53.312;9.790;2023-07-20T02:49:08;1.53;;;1.20;;
39890;SDS011;25564;53.312;9.790;2023-07-20T02:51:39;3.43;;;1.63;;
39890;SDS011;25564;53.312;9.790;2023-07-20T02:54:11;2.03;;;1.40;;
39890;SDS011;25564;53.312;9.790;2023-07-20T02:56:43;3.67;;;1.63;;
39890;SDS011;25564;53.312;9.790;2023-07-20T02:59:15;2.47;;;1.73;;
39890;SDS011;25564;53.312;9.790;2023-07-20T03:01:46;3.63;;;1.83;;
39890;SDS011;25564;53.312;9.790;2023-07-20T03:04:17;4.53;;;1.80;;
39890;SDS011;25564;53.312;9.790;2023-07-20T03:06:49;2.83;;;1.60;;
39890;SDS011;25564;53.312;9.790;2023-07-20T03:09:20;3.87;;;1.83;;
39890;SDS011;25564;53.312;9.790;2023-07-20T03:11:51;3.37;;;1.93;;
39890;SDS011;25564;53.312;9.790;2023-07-20T03:14:23;2.73;;;1.80;;
39890;SDS011;25564;53.312;9.790;2023-07-20T03:16:54;3.43;;;2.10;;
39890;SDS011;25564;53.312;9.790;2023-07-20T03:19:26;3.70;;;2.20;;
39890;SDS011;25564;53.312;9.790;2023-07-20T03:21:59;4.53;;;1.80;;
39890;SDS011;25564;53.312;9.790;2023-07-20T03:24:30;4.07;;;2.07;;
39890;SDS011;25564;53.312;9.790;2023-07-20T03:27:02;6.30;;;2.50;;
39890;SDS011;25564;53.312;9.790;2023-07-20T03:29:33;3.30;;;2.20;;
39890;SDS011;25564;53.312;9.790;2023-07-20T03:32:05;4.90;;;2.03;;
39890;SDS011;25564;53.312;9.790;2023-07-20T03:34:36;4.63;;;2.17;;
39890;SDS011;25564;53.312;9.790;2023-07-20T03:37:07;3.87;;;2.17;;
39890;SDS011;25564;53.312;9.790;2023-07-20T03:39:39;4.63;;;2.10;;
39890;SDS011;25564;53.312;9.790;2023-07-20T03:42:10;3.90;;;2.40;;
39890;SDS011;25564;53.312;9.790;2023-07-20T03:44:42;3.83;;;2.80;;
39890;SDS011;25564;53.312;9.790;2023-07-20T03:47:13;4.70;;;2.23;;
39890;SDS011;25564;53.312;9.790;2023-07-20T03:49:44;3.50;;;2.40;;
39890;SDS011;25564;53.312;9.790;2023-07-20T03:52:16;4.23;;;2.40;;
39890;SDS011;25564;53.312;9.790;2023-07-20T03:54:47;7.30;;;2.50;;
39890;SDS011;25564;53.312;9.790;2023-07-20T03:57:19;5.00;;;2.60;;
39890;SDS011;25564;53.312;9.790;2023-07-20T03:59:50;4.47;;;2.20;;
39890;SDS011;25564;53.312;9.790;2023-07-20T04:02:21;4.93;;;2.50;;
39890;SDS011;25564;53.312;9.790;2023-07-20T04:04:53;3.77;;;2.20;;
39890;SDS011;25564;53.312;9.790;2023-07-20T04:07:24;5.33;;;3.00;;
39890;SDS011;25564;53.312;9.790;2023-07-20T04:09:55;3.73;;;2.50;;
39890;SDS011;25564;53.312;9.790;2023-07-20T04:12:27;4.13;;;2.70;;
39890;SDS011;25564;53.312;9.790;2023-07-20T04:14:58;3.90;;;2.53;;
39890;SDS011;25564;53.312;9.790;2023-07-20T04:17:30;6.57;;;2.70;;
39890;SDS011;25564;53.312;9.790;2023-07-20T04:20:01;5.37;;;2.47;;
39890;SDS011;25564;53.312;9.790;2023-07-20T04:22:34;6.37;;;2.83;;
39890;SDS011;25564;53.312;9.790;2023-07-20T04:25:05;3.13;;;2.23;;
39890;SDS011;25564;53.312;9.790;2023-07-20T04:27:37;4.50;;;2.43;;
39890;SDS011;25564;53.312;9.790;2023-07-20T04:30:08;5.37;;;2.50;;
39890;SDS011;25564;53.312;9.790;2023-07-20T04:32:40;5.27;;;2.70;;
39890;SDS011;25564;53.312;9.790;2023-07-20T04:38:22;3.97;;;2.40;;
39890;SDS011;25564;53.312;9.790;2023-07-20T04:40:55;3.80;;;2.40;;
39890;SDS011;25564;53.312;9.790;2023-07-20T04:43:26;4.00;;;2.37;;
39890;SDS011;25564;53.312;9.790;2023-07-20T04:45:58;7.27;;;3.10;;
39890;SDS011;25564;53.312;9.790;2023-07-20T04:48:29;3.50;;;2.50;;
39890;SDS011;25564;53.312;9.790;2023-07-20T04:51:01;5.30;;;2.30;;
39890;SDS011;25564;53.312;9.790;2023-07-20T04:53:32;4.13;;;2.70;;
39890;SDS011;25564;53.312;9.790;2023-07-20T04:56:03;4.93;;;2.37;;
39890;SDS011;25564;53.312;9.790;2023-07-20T04:58:35;4.10;;;2.60;;
39890;SDS011;25564;53.312;9.790;2023-07-20T05:01:07;5.40;;;2.53;;
39890;SDS011;25564;53.312;9.790;2023-07-20T05:03:39;4.70;;;2.47;;
39890;SDS011;25564;53.312;9.790;2023-07-20T05:06:11;4.60;;;2.53;;
39890;SDS011;25564;53.312;9.790;2023-07-20T05:08:46;5.10;;;2.55;;
39890;SDS011;25564;53.312;9.790;2023-07-20T05:11:17;4.53;;;2.67;;
39890;SDS011;25564;53.312;9.790;2023-07-20T05:13:49;6.13;;;2.60;;
39890;SDS011;25564;53.312;9.790;2023-07-20T05:16:20;7.47;;;2.73;;
39890;SDS011;25564;53.312;9.790;2023-07-20T05:18:52;4.20;;;2.63;;
39890;SDS011;25564;53.312;9.790;2023-07-20T05:21:23;5.90;;;2.33;;
39890;SDS011;25564;53.312;9.790;2023-07-20T05:23:55;3.63;;;2.17;;
39890;SDS011;25564;53.312;9.790;2023-07-20T05:26:26;9.93;;;2.80;;
39890;SDS011;25564;53.312;9.790;2023-07-20T05:28:57;4.00;;;2.30;;
39890;SDS011;25564;53.312;9.790;2023-07-20T05:31:29;4.43;;;2.93;;
39890;SDS011;25564;53.312;9.790;2023-07-20T05:34:01;4.27;;;2.73;;
39890;SDS011;25564;53.312;9.790;2023-07-20T05:36:33;3.17;;;2.37;;
39890;SDS011;25564;53.312;9.790;2023-07-20T05:39:04;3.73;;;2.17;;
39890;SDS011;25564;53.312;9.790;2023-07-20T05:41:35;4.63;;;2.70;;
39890;SDS011;25564;53.312;9.790;2023-07-20T05:44:07;3.87;;;2.77;;
39890;SDS011;25564;53.312;9.790;2023-07-20T05:46:38;3.20;;;2.43;;
39890;SDS011;25564;53.312;9.790;2023-07-20T05:49:27;3.30;;;2.30;;
39890;SDS011;25564;53.312;9.790;2023-07-20T05:51:58;3.40;;;2.13;;
39890;SDS011;25564;53.312;9.790;2023-07-20T05:54:29;3.63;;;2.30;;
39890;SDS011;25564;53.312;9.790;2023-07-20T05:57:01;3.10;;;2.50;;
39890;SDS011;25564;53.312;9.790;2023-07-20T05:59:32;3.13;;;2.10;;
39890;SDS011;25564;53.312;9.790;2023-07-20T06:02:04;2.95;;;2.08;;
39890;SDS011;25564;53.312;9.790;2023-07-20T06:04:35;4.00;;;2.30;;
39890;SDS011;25564;53.312;9.790;2023-07-20T06:07:07;5.00;;;2.17;;
39890;SDS011;25564;53.312;9.790;2023-07-20T06:09:41;3.10;;;1.80;;
39890;SDS011;25564;53.312;9.790;2023-07-20T06:12:12;3.42;;;2.33;;
39890;SDS011;25564;53.312;9.790;2023-07-20T06:14:43;4.18;;;2.50;;
39890;SDS011;25564;53.312;9.790;2023-07-20T06:17:15;2.80;;;1.98;;
39890;SDS011;25564;53.312;9.790;2023-07-20T06:19:46;2.97;;;2.00;;
39890;SDS011;25564;53.312;9.790;2023-07-20T06:22:18;2.90;;;1.88;;
39890;SDS011;25564;53.312;9.790;2023-07-20T06:24:49;3.05;;;2.00;;
39890;SDS011;25564;53.312;9.790;2023-07-20T06:27:20;2.30;;;1.63;;
39890;SDS011;25564;53.312;9.790;2023-07-20T06:29:52;3.90;;;1.65;;
39890;SDS011;25564;53.312;9.790;2023-07-20T06:32:23;1.98;;;1.40;;
39890;SDS011;25564;53.312;9.790;2023-07-20T06:34:55;2.50;;;1.75;;
39890;SDS011;25564;53.312;9.790;2023-07-20T06:37:26;2.67;;;1.58;;
39890;SDS011;25564;53.312;9.790;2023-07-20T06:39:57;2.35;;;1.55;;
39890;SDS011;25564;53.312;9.790;2023-07-20T06:42:31;1.80;;;1.20;;
39890;SDS011;25564;53.312;9.790;2023-07-20T06:45:06;1.92;;;0.90;;
39890;SDS011;25564;53.312;9.790;2023-07-20T06:47:41;3.20;;;1.10;;
39890;SDS011;25564;53.312;9.790;2023-07-20T06:50:12;3.60;;;1.00;;
39890;SDS011;25564;53.312;9.790;2023-07-20T06:52:48;1.58;;;0.80;;
39890;SDS011;25564;53.312;9.790;2023-07-20T06:55:19;1.15;;;0.75;;
39890;SDS011;25564;53.312;9.790;2023-07-20T06:57:54;3.60;;;0.90;;
39890;SDS011;25564;53.312;9.790;2023-07-20T07:00:29;4.05;;;1.05;;
39890;SDS011;25564;53.312;9.790;2023-07-20T07:03:01;3.28;;;0.88;;
39890;SDS011;25564;53.312;9.790;2023-07-20T07:05:37;3.28;;;0.70;;
39890;SDS011;25564;53.312;9.790;2023-07-20T07:08:09;2.33;;;0.90;;
39890;SDS011;25564;53.312;9.790;2023-07-20T07:10:40;0.70;;;0.50;;
39890;SDS011;25564;53.312;9.790;2023-07-20T07:13:11;1.38;;;0.60;;
39890;SDS011;25564;53.312;9.790;2023-07-20T07:15:43;2.70;;;0.85;;
39890;SDS011;25564;53.312;9.790;2023-07-20T07:18:15;0.95;;;0.77;;
39890;SDS011;25564;53.312;9.790;2023-07-20T07:20:52;1.83;;;0.85;;
39890;SDS011;25564;53.312;9.790;2023-07-20T07:23:24;1.45;;;1.00;;
39890;SDS011;25564;53.312;9.790;2023-07-20T07:25:56;5.07;;;1.00;;
39890;SDS011;25564;53.312;9.790;2023-07-20T07:28:28;2.22;;;0.80;;
39890;SDS011;25564;53.312;9.790;2023-07-20T07:30:59;2.25;;;1.00;;
39890;SDS011;25564;53.312;9.790;2023-07-20T07:33:32;2.13;;;0.77;;
39890;SDS011;25564;53.312;9.790;2023-07-20T07:36:03;1.08;;;0.88;;
39890;SDS011;25564;53.312;9.790;2023-07-20T07:38:35;3.20;;;0.90;;
39890;SDS011;25564;53.312;9.790;2023-07-20T07:41:26;2.17;;;0.73;;
39890;SDS011;25564;53.312;9.790;2023-07-20T07:43:58;1.65;;;0.80;;
39890;SDS011;25564;53.312;9.790;2023-07-20T07:46:29;2.17;;;0.70;;
39890;SDS011;25564;53.312;9.790;2023-07-20T07:49:00;3.38;;;0.88;;
39890;SDS011;25564;53.312;9.790;2023-07-20T07:51:32;2.30;;;0.70;;
39890;SDS011;25564;53.312;9.790;2023-07-20T07:54:03;0.68;;;0.60;;
39890;SDS011;25564;53.312;9.790;2023-07-20T07:56:35;1.70;;;1.17;;
39890;SDS011;25564;53.312;9.790;2023-07-20T07:59:07;2.90;;;1.10;;
39890;SDS011;25564;53.312;9.790;2023-07-20T08:01:38;0.90;;;0.73;;
39890;SDS011;25564;53.312;9.790;2023-07-20T08:04:09;2.38;;;0.50;;
39890;SDS011;25564;53.312;9.790;2023-07-20T08:06:41;1.98;;;0.93;;
39890;SDS011;25564;53.312;9.790;2023-07-20T08:09:12;1.50;;;0.63;;
39890;SDS011;25564;53.312;9.790;2023-07-20T08:11:44;1.05;;;0.65;;
39890;SDS011;25564;53.312;9.790;2023-07-20T08:14:15;1.10;;;0.57;;
39890;SDS011;25564;53.312;9.790;2023-07-20T08:16:46;1.08;;;0.73;;
39890;SDS011;25564;53.312;9.790;2023-07-20T08:19:19;1.05;;;0.70;;
39890;SDS011;25564;53.312;9.790;2023-07-20T08:21:51;1.55;;;1.33;;
39890;SDS011;25564;53.312;9.790;2023-07-20T08:24:22;1.55;;;0.70;;
39890;SDS011;25564;53.312;9.790;2023-07-20T08:26:54;1.85;;;0.80;;
39890;SDS011;25564;53.312;9.790;2023-07-20T08:29:25;1.83;;;0.80;;
39890;SDS011;25564;53.312;9.790;2023-07-20T08:31:56;3.65;;;0.82;;
39890;SDS011;25564;53.312;9.790;2023-07-20T08:34:28;1.42;;;0.80;;
39890;SDS011;25564;53.312;9.790;2023-07-20T08:37:02;2.80;;;0.70;;
39890;SDS011;25564;53.312;9.790;2023-07-20T08:39:34;1.58;;;0.93;;
39890;SDS011;25564;53.312;9.790;2023-07-20T08:42:06;2.42;;;0.90;;
39890;SDS011;25564;53.312;9.790;2023-07-20T08:44:38;1.50;;;0.80;;
39890;SDS011;25564;53.312;9.790;2023-07-20T08:47:11;1.13;;;0.60;;
39890;SDS011;25564;53.312;9.790;2023-07-20T08:49:50;2.53;;;1.00;;
39890;SDS011;25564;53.312;9.790;2023-07-20T08:52:21;0.77;;;0.77;;
39890;SDS011;25564;53.312;9.790;2023-07-20T08:54:53;3.40;;;0.98;;
39890;SDS011;25564;53.312;9.790;2023-07-20T08:57:25;2.80;;;0.82;;
39890;SDS011;25564;53.312;9.790;2023-07-20T08:59:57;2.88;;;0.70;;
39890;SDS011;25564;53.312;9.790;2023-07-20T09:02:29;1.85;;;0.73;;
39890;SDS011;25564;53.312;9.790;2023-07-20T09:05:04;4.38;;;1.05;;
39890;SDS011;25564;53.312;9.790;2023-07-20T09:07:36;1.73;;;0.95;;
39890;SDS011;25564;53.312;9.790;2023-07-20T09:10:07;3.60;;;1.33;;
39890;SDS011;25564;53.312;9.790;2023-07-20T09:12:40;2.15;;;1.20;;
39890;SDS011;25564;53.312;9.790;2023-07-20T09:15:14;3.35;;;1.35;;
39890;SDS011;25564;53.312;9.790;2023-07-20T09:17:48;2.00;;;1.20;;
39890;SDS011;25564;53.312;9.790;2023-07-20T09:20:21;5.20;;;1.30;;
39890;SDS011;25564;53.312;9.790;2023-07-20T09:22:54;5.18;;;1.33;;
39890;SDS011;25564;53.312;9.790;2023-07-20T09:25:25;2.58;;;1.35;;
39890;SDS011;25564;53.312;9.790;2023-07-20T09:28:02;3.22;;;1.60;;
39890;SDS011;25564;53.312;9.790;2023-07-20T09:30:36;7.55;;;1.50;;
39890;SDS011;25564;53.312;9.790;2023-07-20T09:33:17;3.85;;;1.58;;
39890;SDS011;25564;53.312;9.790;2023-07-20T09:35:53;2.03;;;0.95;;
39890;SDS011;25564;53.312;9.790;2023-07-20T09:38:28;2.55;;;1.00;;
39890;SDS011;25564;53.312;9.790;2023-07-20T09:41:20;1.77;;;0.80;;
39890;SDS011;25564;53.312;9.790;2023-07-20T09:43:55;4.72;;;1.00;;
39890;SDS011;25564;53.312;9.790;2023-07-20T09:46:40;2.08;;;0.90;;
39890;SDS011;25564;53.312;9.790;2023-07-20T09:49:16;1.10;;;0.70;;
39890;SDS011;25564;53.312;9.790;2023-07-20T09:54:24;1.38;;;0.65;;
39890;SDS011;25564;53.312;9.790;2023-07-20T09:56:58;4.32;;;0.95;;
39890;SDS011;25564;53.312;9.790;2023-07-20T09:59:31;1.45;;;0.80;;
39890;SDS011;25564;53.312;9.790;2023-07-20T10:02:04;2.78;;;0.90;;
39890;SDS011;25564;53.312;9.790;2023-07-20T10:04:42;2.75;;;1.10;;
39890;SDS011;25564;53.312;9.790;2023-07-20T10:07:14;5.05;;;0.80;;
39890;SDS011;25564;53.312;9.790;2023-07-20T10:09:47;4.20;;;0.90;;
39890;SDS011;25564;53.312;9.790;2023-07-20T10:12:19;1.67;;;1.00;;
39890;SDS011;25564;53.312;9.790;2023-07-20T10:15:06;5.15;;;1.40;;
39890;SDS011;25564;53.312;9.790;2023-07-20T10:20:43;1.65;;;1.05;;
39890;SDS011;25564;53.312;9.790;2023-07-20T10:23:18;5.17;;;1.00;;
39890;SDS011;25564;53.312;9.790;2023-07-20T10:25:50;5.13;;;1.45;;
39890;SDS011;25564;53.312;9.790;2023-07-20T10:28:22;2.80;;;1.05;;
39890;SDS011;25564;53.312;9.790;2023-07-20T10:30:54;4.53;;;1.00;;
39890;SDS011;25564;53.312;9.790;2023-07-20T10:33:25;2.25;;;1.10;;
39890;SDS011;25564;53.312;9.790;2023-07-20T10:36:00;3.53;;;0.80;;
39890;SDS011;25564;53.312;9.790;2023-07-20T10:38:51;3.63;;;1.38;;
39890;SDS011;25564;53.312;9.790;2023-07-20T10:41:33;2.72;;;0.90;;
39890;SDS011;25564;53.312;9.790;2023-07-20T10:44:07;3.55;;;1.00;;
39890;SDS011;25564;53.312;9.790;2023-07-20T10:49:11;6.97;;;0.98;;
39890;SDS011;25564;53.312;9.790;2023-07-20T10:51:47;4.53;;;1.15;;
39890;SDS011;25564;53.312;9.790;2023-07-20T10:56:51;2.20;;;0.63;;
39890;SDS011;25564;53.312;9.790;2023-07-20T11:01:55;4.00;;;1.10;;
39890;SDS011;25564;53.312;9.790;2023-07-20T11:07:15;1.13;;;0.68;;
39890;SDS011;25564;53.312;9.790;2023-07-20T11:09:48;1.23;;;0.80;;
39890;SDS011;25564;53.312;9.790;2023-07-20T11:12:21;2.00;;;0.88;;
39890;SDS011;25564;53.312;9.790;2023-07-20T11:14:53;1.25;;;0.70;;
39890;SDS011;25564;53.312;9.790;2023-07-20T11:17:33;2.60;;;0.80;;
39890;SDS011;25564;53.312;9.790;2023-07-20T11:20:07;3.53;;;1.27;;
39890;SDS011;25564;53.312;9.790;2023-07-20T11:22:47;2.65;;;0.90;;
39890;SDS011;25564;53.312;9.790;2023-07-20T11:25:18;2.50;;;1.08;;
39890;SDS011;25564;53.312;9.790;2023-07-20T11:27:50;2.33;;;0.73;;
39890;SDS011;25564;53.312;9.790;2023-07-20T11:30:23;4.47;;;1.05;;
39890;SDS011;25564;53.312;9.790;2023-07-20T11:32:55;2.35;;;0.85;;
39890;SDS011;25564;53.312;9.790;2023-07-20T11:35:26;2.75;;;0.88;;
39890;SDS011;25564;53.312;9.790;2023-07-20T11:37:58;2.42;;;0.70;;
39890;SDS011;25564;53.312;9.790;2023-07-20T11:40:29;4.72;;;1.33;;
39890;SDS011;25564;53.312;9.790;2023-07-20T11:43:00;1.52;;;0.77;;
39890;SDS011;25564;53.312;9.790;2023-07-20T11:45:35;0.65;;;0.40;;
39890;SDS011;25564;53.312;9.790;2023-07-20T11:48:06;1.23;;;0.68;;
39890;SDS011;25564;53.312;9.790;2023-07-20T11:50:38;3.40;;;0.77;;
39890;SDS011;25564;53.312;9.790;2023-07-20T11:53:11;1.85;;;1.13;;
39890;SDS011;25564;53.312;9.790;2023-07-20T11:55:43;0.93;;;0.60;;
39890;SDS011;25564;53.312;9.790;2023-07-20T11:58:16;1.40;;;0.50;;
39890;SDS011;25564;53.312;9.790;2023-07-20T12:00:48;0.90;;;0.40;;
39890;SDS011;25564;53.312;9.790;2023-07-20T12:03:19;2.95;;;0.77;;
39890;SDS011;25564;53.312;9.790;2023-07-20T12:05:51;0.88;;;0.60;;
39890;SDS011;25564;53.312;9.790;2023-07-20T12:08:32;1.02;;;0.60;;
39890;SDS011;25564;53.312;9.790;2023-07-20T12:11:04;1.23;;;0.60;;
39890;SDS011;25564;53.312;9.790;2023-07-20T12:13:39;2.65;;;0.90;;
39890;SDS011;25564;53.312;9.790;2023-07-20T12:16:14;2.65;;;0.70;;
39890;SDS011;25564;53.312;9.790;2023-07-20T12:18:47;3.88;;;0.90;;
39890;SDS011;25564;53.312;9.790;2023-07-20T12:21:18;2.55;;;0.60;;
39890;SDS011;25564;53.312;9.790;2023-07-20T12:23:50;3.25;;;0.60;;
39890;SDS011;25564;53.312;9.790;2023-07-20T12:26:21;1.27;;;0.60;;
39890;SDS011;25564;53.312;9.790;2023-07-20T12:28:55;1.95;;;0.60;;
39890;SDS011;25564;53.312;9.790;2023-07-20T12:31:27;1.17;;;0.57;;
39890;SDS011;25564;53.312;9.790;2023-07-20T12:34:00;2.05;;;1.23;;
39890;SDS011;25564;53.312;9.790;2023-07-20T12:36:32;4.10;;;0.82;;
39890;SDS011;25564;53.312;9.790;2023-07-20T12:39:03;2.30;;;0.63;;
39890;SDS011;25564;53.312;9.790;2023-07-20T12:41:35;3.30;;;0.65;;
39890;SDS011;25564;53.312;9.790;2023-07-20T12:44:07;4.28;;;0.77;;
39890;SDS011;25564;53.312;9.790;2023-07-20T12:46:38;2.45;;;0.60;;
39890;SDS011;25564;53.312;9.790;2023-07-20T12:49:10;1.73;;;0.40;;
39890;SDS011;25564;53.312;9.790;2023-07-20T12:51:41;2.60;;;0.43;;
39890;SDS011;25564;53.312;9.790;2023-07-20T12:54:13;1.85;;;0.60;;
39890;SDS011;25564;53.312;9.790;2023-07-20T12:56:44;1.77;;;0.63;;
39890;SDS011;25564;53.312;9.790;2023-07-20T12:59:18;2.38;;;0.45;;
39890;SDS011;25564;53.312;9.790;2023-07-20T13:01:50;2.88;;;0.82;;
39890;SDS011;25564;53.312;9.790;2023-07-20T13:04:21;2.30;;;0.55;;
39890;SDS011;25564;53.312;9.790;2023-07-20T13:06:53;1.30;;;0.50;;
39890;SDS011;25564;53.312;9.790;2023-07-20T13:09:25;1.05;;;0.35;;
39890;SDS011;25564;53.312;9.790;2023-07-20T13:11:57;3.05;;;1.10;;
39890;SDS011;25564;53.312;9.790;2023-07-20T13:14:28;0.90;;;0.22;;
39890;SDS011;25564;53.312;9.790;2023-07-20T13:17:00;1.27;;;0.43;;
39890;SDS011;25564;53.312;9.790;2023-07-20T13:19:31;3.40;;;0.80;;
39890;SDS011;25564;53.312;9.790;2023-07-20T13:22:03;1.75;;;0.60;;
39890;SDS011;25564;53.312;9.790;2023-07-20T13:24:35;1.50;;;0.50;;
39890;SDS011;25564;53.312;9.790;2023-07-20T13:27:06;3.20;;;0.90;;
39890;SDS011;25564;53.312;9.790;2023-07-20T13:29:38;1.30;;;0.82;;
39890;SDS011;25564;53.312;9.790;2023-07-20T13:32:09;1.52;;;0.40;;
39890;SDS011;25564;53.312;9.790;2023-07-20T13:34:41;0.95;;;0.70;;
39890;SDS011;25564;53.312;9.790;2023-07-20T13:37:13;3.05;;;0.80;;
39890;SDS011;25564;53.312;9.790;2023-07-20T13:39:44;3.45;;;0.55;;
39890;SDS011;25564;53.312;9.790;2023-07-20T13:42:16;2.47;;;0.68;;
39890;SDS011;25564;53.312;9.790;2023-07-20T13:44:50;1.23;;;0.45;;
39890;SDS011;25564;53.312;9.790;2023-07-20T13:47:21;1.85;;;0.40;;
39890;SDS011;25564;53.312;9.790;2023-07-20T13:49:52;4.38;;;0.65;;
39890;SDS011;25564;53.312;9.790;2023-07-20T13:52:34;0.68;;;0.40;;
39890;SDS011;25564;53.312;9.790;2023-07-20T13:55:09;1.55;;;0.35;;
39890;SDS011;25564;53.312;9.790;2023-07-20T13:57:40;0.80;;;0.40;;
39890;SDS011;25564;53.312;9.790;2023-07-20T14:00:14;1.25;;;0.60;;
39890;SDS011;25564;53.312;9.790;2023-07-20T14:02:46;2.28;;;0.60;;
39890;SDS011;25564;53.312;9.790;2023-07-20T14:05:21;1.95;;;0.57;;
39890;SDS011;25564;53.312;9.790;2023-07-20T14:07:55;2.88;;;0.77;;
39890;SDS011;25564;53.312;9.790;2023-07-20T14:10:26;1.23;;;0.60;;
39890;SDS011;25564;53.312;9.790;2023-07-20T14:12:58;0.30;;;0.30;;
39890;SDS011;25564;53.312;9.790;2023-07-20T14:15:29;1.00;;;0.45;;
39890;SDS011;25564;53.312;9.790;2023-07-20T14:18:01;3.03;;;0.90;;
39890;SDS011;25564;53.312;9.790;2023-07-20T14:20:32;2.35;;;0.65;;
39890;SDS011;25564;53.312;9.790;2023-07-20T14:23:04;2.30;;;0.60;;
39890;SDS011;25564;53.312;9.790;2023-07-20T14:25:35;1.02;;;0.40;;
39890;SDS011;25564;53.312;9.790;2023-07-20T14:28:08;0.40;;;0.40;;
39890;SDS011;25564;53.312;9.790;2023-07-20T14:30:41;1.10;;;0.43;;
39890;SDS011;25564;53.312;9.790;2023-07-20T14:33:12;1.27;;;0.47;;
39890;SDS011;25564;53.312;9.790;2023-07-20T14:35:44;3.47;;;0.60;;
39890;SDS011;25564;53.312;9.790;2023-07-20T14:38:15;1.38;;;0.32;;
39890;SDS011;25564;53.312;9.790;2023-07-20T14:40:47;4.57;;;0.68;;
39890;SDS011;25564;53.312;9.790;2023-07-20T14:43:22;2.58;;;0.50;;
39890;SDS011;25564;53.312;9.790;2023-07-20T14:45:53;1.65;;;0.60;;
39890;SDS011;25564;53.312;9.790;2023-07-20T14:48:25;1.17;;;0.70;;
39890;SDS011;25564;53.312;9.790;2023-07-20T14:50:57;2.33;;;0.73;;
39890;SDS011;25564;53.312;9.790;2023-07-20T14:53:32;0.57;;;0.30;;
39890;SDS011;25564;53.312;9.790;2023-07-20T14:56:07;0.93;;;0.50;;
39890;SDS011;25564;53.312;9.790;2023-07-20T14:58:39;1.30;;;0.63;;
39890;SDS011;25564;53.312;9.790;2023-07-20T15:01:10;2.45;;;0.57;;
39890;SDS011;25564;53.312;9.790;2023-07-20T15:03:41;1.30;;;0.70;;
39890;SDS011;25564;53.312;9.790;2023-07-20T15:06:13;1.27;;;0.40;;
39890;SDS011;25564;53.312;9.790;2023-07-20T15:08:44;0.75;;;0.40;;
39890;SDS011;25564;53.312;9.790;2023-07-20T15:11:16;1.67;;;0.57;;
39890;SDS011;25564;53.312;9.790;2023-07-20T15:13:47;2.00;;;0.52;;
39890;SDS011;25564;53.312;9.790;2023-07-20T15:16:18;1.55;;;0.50;;
39890;SDS011;25564;53.312;9.790;2023-07-20T15:18:50;1.15;;;0.50;;
39890;SDS011;25564;53.312;9.790;2023-07-20T15:21:21;1.20;;;0.50;;
39890;SDS011;25564;53.312;9.790;2023-07-20T15:23:55;2.35;;;0.73;;
39890;SDS011;25564;53.312;9.790;2023-07-20T15:26:28;2.30;;;0.55;;
39890;SDS011;25564;53.312;9.790;2023-07-20T15:28:59;3.70;;;1.00;;
39890;SDS011;25564;53.312;9.790;2023-07-20T15:31:30;7.65;;;4.28;;
39890;SDS011;25564;53.312;9.790;2023-07-20T15:34:05;2.85;;;1.00;;
39890;SDS011;25564;53.312;9.790;2023-07-20T15:36:36;3.08;;;0.85;;
39890;SDS011;25564;53.312;9.790;2023-07-20T15:39:08;1.73;;;0.82;;
39890;SDS011;25564;53.312;9.790;2023-07-20T15:41:39;2.38;;;0.68;;
39890;SDS011;25564;53.312;9.790;2023-07-20T15:44:11;3.22;;;0.70;;
39890;SDS011;25564;53.312;9.790;2023-07-20T15:46:44;2.72;;;0.68;;
39890;SDS011;25564;53.312;9.790;2023-07-20T15:49:20;0.68;;;0.50;;
39890;SDS011;25564;53.312;9.790;2023-07-20T15:51:52;1.42;;;0.50;;